Time;durP1;ratioP1;P1;durP2;ratioP2;P2;SDS_P1;SDS_P2;PMS_P1;PMS_P2;Temp;Humidity;BMP_temperature;BMP_pressure;BME280_temperature;BME280_humidity;BME280_pressure;Samples;Min_cycle;Max_cycle;Signal;HPM_P1;HPM_P2
2022/05/12 00:04:48;;;;;;;1.50;0.75;;;19.90;60.40;;;;;;10421241;28;20045;-57
2022/05/12 00:09:50;;;;;;;2.58;0.50;;;19.90;60.60;;;;;;10427459;28;20045;-57
2022/05/12 00:14:51;;;;;;;2.55;0.60;;;19.90;61.20;;;;;;10422572;28;20045;-57
2022/05/12 00:19:53;;;;;;;1.05;0.50;;;19.80;61.50;;;;;;10422234;28;20058;-57
2022/05/12 00:24:55;;;;;;;4.00;0.60;;;19.80;61.60;;;;;;10426121;28;20103;-57
2022/05/12 00:29:56;;;;;;;3.25;0.52;;;19.80;61.80;;;;;;10422604;28;20048;-57
2022/05/12 00:34:58;;;;;;;1.92;0.60;;;19.70;62.20;;;;;;10419803;28;20115;-57
2022/05/12 00:40:00;;;;;;;1.40;0.55;;;19.70;62.70;;;;;;10422603;28;20128;-57
2022/05/12 00:45:01;;;;;;;5.28;1.08;;;19.70;62.80;;;;;;10427244;28;20060;-57
2022/05/12 00:50:04;;;;;;;1.25;0.40;;;19.70;63.40;;;;;;10424686;28;20789;-58
2022/05/12 00:55:20;;;;;;;1.25;0.70;;;19.60;63.80;;;;;;10427002;28;20508;-58
2022/05/12 01:00:23;;;;;;;3.55;0.63;;;19.60;64.30;;;;;;10410309;28;20098;-58
2022/05/12 01:05:26;;;;;;;1.05;0.50;;;19.60;65.00;;;;;;10425195;28;20107;-57
2022/05/12 01:10:29;;;;;;;1.95;0.50;;;19.50;65.50;;;;;;10425351;28;20052;-57
2022/05/12 01:15:31;;;;;;;5.75;0.30;;;19.40;65.90;;;;;;10424553;28;20041;-58
2022/05/12 01:20:33;;;;;;;3.70;0.40;;;19.30;66.70;;;;;;10423004;28;20106;-58
2022/05/12 01:25:35;;;;;;;1.48;0.40;;;19.30;67.50;;;;;;10420329;28;20052;-58
2022/05/12 01:30:36;;;;;;;1.10;0.30;;;19.30;68.10;;;;;;10391408;28;20056;-57
2022/05/12 01:35:38;;;;;;;1.85;0.40;;;19.20;68.70;;;;;;10417800;28;20064;-57
2022/05/12 01:40:42;;;;;;;2.35;0.40;;;19.20;69.70;;;;;;10421401;28;20075;-58
2022/05/12 01:45:44;;;;;;;2.20;0.50;;;19.10;69.70;;;;;;10427624;28;20127;-57
2022/05/12 01:50:47;;;;;;;0.50;0.40;;;19.10;70.50;;;;;;10422498;28;20049;-57
2022/05/12 01:55:49;;;;;;;0.90;0.40;;;19.00;70.80;;;;;;10428467;28;20055;-58
2022/05/12 02:00:51;;;;;;;1.35;0.35;;;19.00;71.40;;;;;;10422119;28;20057;-58
2022/05/12 02:05:53;;;;;;;1.95;0.60;;;18.90;72.10;;;;;;10428520;28;20103;-57
2022/05/12 02:10:55;;;;;;;1.70;0.40;;;18.80;73.10;;;;;;10418149;28;20454;-58
2022/05/12 02:15:57;;;;;;;1.38;0.70;;;18.70;74.10;;;;;;10406740;28;20119;-57
2022/05/12 02:20:59;;;;;;;0.77;0.30;;;18.60;75.20;;;;;;10416707;28;20081;-58
2022/05/12 02:26:01;;;;;;;4.32;0.80;;;18.60;75.70;;;;;;10405551;28;20115;-57
2022/05/12 02:31:03;;;;;;;4.22;0.30;;;18.50;77.10;;;;;;10417263;28;20068;-58
2022/05/12 02:36:05;;;;;;;2.67;0.30;;;18.40;79.10;;;;;;10413931;28;20561;-58
2022/05/12 02:41:07;;;;;;;2.08;0.30;;;18.30;78.90;;;;;;10419976;28;20057;-57
2022/05/12 02:46:11;;;;;;;2.78;0.30;;;18.30;79.50;;;;;;10421399;28;20487;-58
2022/05/12 02:51:13;;;;;;;5.57;0.35;;;18.20;80.00;;;;;;10415601;28;20114;-58
2022/05/12 02:56:15;;;;;;;1.63;0.30;;;18.00;81.70;;;;;;10420245;28;20538;-58
2022/05/12 03:01:17;;;;;;;5.88;0.30;;;18.00;82.80;;;;;;10443918;28;20056;-58
2022/05/12 03:06:18;;;;;;;4.38;0.52;;;17.90;83.80;;;;;;10456225;28;20052;-58
2022/05/12 03:11:21;;;;;;;3.30;0.55;;;17.80;84.80;;;;;;10457182;28;20052;-57
2022/05/12 03:16:23;;;;;;;4.43;0.80;;;17.80;86.90;;;;;;10458262;28;20057;-58
2022/05/12 03:21:26;;;;;;;1.15;0.28;;;17.70;87.20;;;;;;10459856;28;20140;-57
2022/05/12 03:26:28;;;;;;;2.15;0.40;;;17.60;89.20;;;;;;10454668;28;20565;-57
2022/05/12 03:31:29;;;;;;;3.83;0.30;;;17.60;90.00;;;;;;10457394;28;20053;-57
2022/05/12 03:36:35;;;;;;;2.30;0.22;;;17.60;90.00;;;;;;10453520;28;20562;-57
2022/05/12 03:41:37;;;;;;;5.40;0.30;;;17.60;90.30;;;;;;10460234;28;20130;-60
2022/05/12 03:46:38;;;;;;;1.85;0.40;;;17.70;90.20;;;;;;10467781;28;20110;-59
2022/05/12 03:51:40;;;;;;;2.55;0.30;;;17.70;90.50;;;;;;10452494;28;20506;-59
2022/05/12 03:56:43;;;;;;;5.45;0.40;;;17.60;91.20;;;;;;10465859;28;20114;-59
2022/05/12 04:01:45;;;;;;;0.75;0.30;;;17.50;91.70;;;;;;10435438;28;20056;-59
2022/05/12 04:06:47;;;;;;;1.05;0.20;;;17.40;92.20;;;;;;10425209;28;20053;-59
2022/05/12 04:11:48;;;;;;;3.40;0.20;;;17.50;92.70;;;;;;10422496;28;20049;-59
2022/05/12 04:16:50;;;;;;;1.40;0.28;;;17.40;92.80;;;;;;10407386;28;20057;-60
2022/05/12 04:21:55;;;;;;;2.35;0.40;;;17.40;93.00;;;;;;10423668;28;20693;-59
2022/05/12 04:26:57;;;;;;;3.53;0.68;;;17.40;93.40;;;;;;10421647;28;20114;-59
2022/05/12 04:31:59;;;;;;;1.48;0.30;;;17.40;93.60;;;;;;10411585;28;20051;-59
2022/05/12 04:37:01;;;;;;;2.10;0.43;;;17.40;93.80;;;;;;10420902;28;20056;-60
2022/05/12 04:42:03;;;;;;;2.05;0.20;;;17.40;94.40;;;;;;10405528;28;20513;-59
2022/05/12 04:47:04;;;;;;;0.50;0.30;;;17.30;92.90;;;;;;10414799;28;20061;-59
2022/05/12 04:52:06;;;;;;;1.23;0.20;;;17.40;91.30;;;;;;10418416;28;20061;-59
2022/05/12 04:57:08;;;;;;;1.25;0.30;;;17.40;92.00;;;;;;10423918;28;20052;-60
2022/05/12 05:02:10;;;;;;;0.70;0.10;;;17.30;92.50;;;;;;10417714;28;20049;-59
2022/05/12 05:07:12;;;;;;;6.18;0.40;;;17.30;93.30;;;;;;10420844;28;20063;-59
2022/05/12 05:12:14;;;;;;;1.48;0.20;;;17.40;93.40;;;;;;10421741;28;20057;-60
2022/05/12 05:17:16;;;;;;;1.83;0.73;;;17.30;93.70;;;;;;10428655;28;20048;-60
2022/05/12 05:22:18;;;;;;;0.80;0.20;;;17.40;94.20;;;;;;10423953;28;20059;-59
2022/05/12 05:27:20;;;;;;;0.98;0.38;;;17.40;93.20;;;;;;10394626;28;20064;-59
2022/05/12 05:32:21;;;;;;;6.07;0.30;;;17.50;93.40;;;;;;10417497;28;20552;-60
2022/05/12 05:37:23;;;;;;;2.65;0.20;;;17.40;92.10;;;;;;10417619;28;20126;-60
2022/05/12 05:42:25;;;;;;;2.63;0.20;;;17.40;91.80;;;;;;10426746;28;20106;-60
2022/05/12 05:47:28;;;;;;;0.73;0.30;;;17.40;90.90;;;;;;10418172;28;20049;-59
2022/05/12 05:57:50;;;;;;;0.63;0.15;;;17.50;90.40;;;;;;10422537;28;20045;-59
2022/05/12 06:02:51;;;;;;;1.67;0.20;;;17.40;89.10;;;;;;10421403;28;20592;-59
2022/05/12 06:07:54;;;;;;;3.50;0.20;;;17.30;88.90;;;;;;10408386;28;20053;-60
2022/05/12 06:12:56;;;;;;;1.80;0.30;;;17.50;90.30;;;;;;10413585;28;20053;-60
2022/05/12 06:17:58;;;;;;;1.48;0.45;;;17.70;89.70;;;;;;10412436;28;20056;-59
2022/05/12 06:23:00;;;;;;;1.80;0.20;;;17.70;88.40;;;;;;10415686;28;20056;-60
2022/05/12 06:28:01;;;;;;;2.35;0.20;;;17.80;88.10;;;;;;10419091;28;20083;-60
2022/05/12 06:33:04;;;;;;;2.00;0.20;;;17.80;86.10;;;;;;10419205;28;20072;-59
2022/05/12 06:38:06;;;;;;;1.23;0.20;;;17.90;85.30;;;;;;10412000;28;20142;-60
2022/05/12 06:43:08;;;;;;;3.10;0.22;;;17.80;85.20;;;;;;10404909;28;20056;-59
2022/05/12 06:48:10;;;;;;;4.47;0.30;;;17.80;84.20;;;;;;10413629;28;20103;-60
2022/05/12 06:53:12;;;;;;;0.60;0.30;;;17.80;85.60;;;;;;10411808;28;20127;-59
2022/05/12 06:58:17;;;;;;;2.20;0.55;;;17.70;84.00;;;;;;10415656;28;20849;-59
2022/05/12 07:03:19;;;;;;;1.27;0.30;;;17.80;84.50;;;;;;10413643;28;20092;-59
2022/05/12 07:08:21;;;;;;;1.15;0.20;;;17.90;83.90;;;;;;10411780;28;20049;-59
2022/05/12 07:13:24;;;;;;;1.05;0.73;;;17.80;83.40;;;;;;10401689;28;20451;-60
2022/05/12 07:18:26;;;;;;;1.95;0.30;;;18.00;83.80;;;;;;10429008;28;20100;-59
2022/05/12 07:29:11;;;;;;;1.08;0.30;;;18.00;84.70;;;;;;10425785;28;20040;-59
2022/05/12 07:34:13;;;;;;;2.15;0.20;;;18.20;83.60;;;;;;10433299;28;20053;-59
2022/05/12 07:39:17;;;;;;;0.30;0.20;;;18.70;82.30;;;;;;10433319;28;20072;-59
2022/05/12 07:44:19;;;;;;;1.17;0.20;;;18.70;81.10;;;;;;10427412;28;20491;-60
2022/05/12 07:49:21;;;;;;;2.65;0.20;;;18.80;79.90;;;;;;10430712;28;20063;-60
2022/05/12 07:54:23;;;;;;;3.28;0.40;;;19.00;80.20;;;;;;10415087;28;20056;-59
2022/05/12 07:59:27;;;;;;;1.00;0.40;;;19.10;78.40;;;;;;10427401;28;20061;-60
2022/05/12 08:04:29;;;;;;;3.05;0.20;;;19.10;78.30;;;;;;10429982;28;20052;-60
2022/05/12 08:09:31;;;;;;;2.65;0.17;;;18.90;77.90;;;;;;10407490;28;20052;-60
2022/05/12 08:14:32;;;;;;;3.25;0.30;;;18.80;78.20;;;;;;10424661;28;20049;-60
2022/05/12 08:19:34;;;;;;;3.28;0.40;;;18.90;77.40;;;;;;10435777;28;20056;-60
2022/05/12 08:24:40;;;;;;;0.88;0.20;;;19.10;76.70;;;;;;10431792;28;20056;-60
2022/05/12 08:29:43;;;;;;;3.47;0.20;;;19.30;76.70;;;;;;10429770;28;20740;-60
2022/05/12 08:34:45;;;;;;;1.65;0.20;;;19.60;76.00;;;;;;10419828;28;20053;-60
2022/05/12 08:39:47;;;;;;;0.73;0.20;;;19.90;72.20;;;;;;10429573;28;20049;-60
2022/05/12 08:44:50;;;;;;;2.08;0.10;;;20.10;72.00;;;;;;10425297;28;20099;-60
2022/05/12 08:49:52;;;;;;;1.65;0.20;;;20.20;70.70;;;;;;10402300;28;20053;-60
2022/05/12 08:55:20;;;;;;;1.25;0.22;;;20.40;69.00;;;;;;10422505;28;20693;-61
2022/05/12 09:00:23;;;;;;;1.38;0.20;;;20.60;68.60;;;;;;10421458;28;20049;-60
2022/05/12 09:05:33;;;;;;;0.70;0.10;;;20.70;67.30;;;;;;10418488;28;20521;-60
2022/05/12 09:10:42;;;;;;;3.47;0.20;;;20.80;68.30;;;;;;10412674;28;20066;-60
2022/05/12 09:15:56;;;;;;;1.80;0.10;;;20.80;66.60;;;;;;10415839;28;20072;-60
2022/05/12 09:21:05;;;;;;;0.45;0.20;;;20.90;66.80;;;;;;10418605;28;20053;-61
2022/05/12 09:26:44;;;;;;;1.52;0.20;;;20.70;66.60;;;;;;10416121;28;20057;-60
2022/05/12 09:31:55;;;;;;;3.97;0.20;;;20.70;65.50;;;;;;10416340;28;20053;-61
2022/05/12 09:37:30;;;;;;;0.98;0.20;;;20.80;64.50;;;;;;10417067;28;20712;-61
2022/05/12 09:42:32;;;;;;;4.85;0.15;;;21.00;63.80;;;;;;10358733;28;20049;-62
2022/05/12 09:47:34;;;;;;;2.92;0.10;;;21.20;63.70;;;;;;10420885;28;20041;-62
2022/05/12 09:52:37;;;;;;;1.98;0.20;;;21.30;61.70;;;;;;10421840;28;20415;-62
2022/05/12 09:58:21;;;;;;;1.45;0.10;;;21.40;62.20;;;;;;10417633;28;20048;-62
2022/05/12 10:09:05;;;;;;;0.70;0.10;;;21.40;61.60;;;;;;10408486;28;20045;-61
2022/05/12 10:14:19;;;;;;;0.50;0.10;;;21.10;60.50;;;;;;10411983;28;20068;-61
2022/05/12 10:19:22;;;;;;;2.63;0.20;;;21.40;61.10;;;;;;10420226;28;20058;-62
2022/05/12 10:24:33;;;;;;;1.75;0.20;;;21.50;62.00;;;;;;10400476;28;20076;-61
2022/05/12 10:30:04;;;;;;;1.38;0.20;;;21.50;61.30;;;;;;10412609;28;20049;-61
2022/05/12 10:35:29;;;;;;;1.95;0.65;;;22.00;59.70;;;;;;10414209;28;20573;-62
2022/05/12 10:40:38;;;;;;;3.05;0.20;;;22.10;59.80;;;;;;10410875;28;20045;-61
2022/05/12 10:45:52;;;;;;;2.05;0.20;;;22.50;58.60;;;;;;10417980;28;20139;-61
2022/05/12 10:51:02;;;;;;;0.25;0.20;;;22.60;59.10;;;;;;10416700;28;20048;-61
2022/05/12 10:56:41;;;;;;;1.25;0.13;;;22.70;58.10;;;;;;10401237;28;20049;-61
2022/05/12 11:02:11;;;;;;;2.53;0.20;;;22.80;58.20;;;;;;10423017;28;20049;-62
2022/05/12 11:07:29;;;;;;;1.35;0.20;;;22.80;56.30;;;;;;10418334;28;20049;-61
2022/05/12 11:12:54;;;;;;;1.15;0.50;;;23.10;55.90;;;;;;10415336;28;20080;-61
2022/05/12 11:18:04;;;;;;;2.63;0.10;;;22.90;55.40;;;;;;10412693;28;20057;-61
2022/05/12 11:23:43;;;;;;;0.35;0.10;;;23.10;56.30;;;;;;10415504;28;20060;-61
2022/05/12 11:34:23;;;;;;;0.30;0.20;;;23.20;55.00;;;;;;10418970;28;20049;-61
2022/05/12 11:39:51;;;;;;;0.93;0.10;;;23.50;53.90;;;;;;10417672;28;20058;-61
2022/05/12 11:45:07;;;;;;;0.47;0.10;;;23.20;53.80;;;;;;10414793;28;20045;-60
2022/05/12 11:50:30;;;;;;;1.95;0.13;;;23.20;53.50;;;;;;10415845;28;20064;-61
2022/05/12 11:55:35;;;;;;;1.65;0.10;;;23.20;54.30;;;;;;10420199;28;20076;-61
2022/05/12 12:00:36;;;;;;;0.52;0.10;;;23.60;53.70;;;;;;10418676;28;20140;-61
2022/05/12 12:05:47;;;;;;;0.57;0.10;;;23.80;53.90;;;;;;10428250;28;20041;-61
2022/05/12 12:10:49;;;;;;;0.10;0.03;;;23.70;53.60;;;;;;10420282;28;20048;-61
2022/05/12 12:16:13;;;;;;;1.30;0.10;;;23.50;51.60;;;;;;10424019;28;20049;-59
2022/05/12 12:21:41;;;;;;;1.20;0.10;;;23.90;52.20;;;;;;10406593;28;20049;-60
2022/05/12 12:26:44;;;;;;;1.67;0.10;;;24.10;51.40;;;;;;10419684;28;20045;-62
2022/05/12 12:31:51;;;;;;;1.50;0.10;;;24.40;50.30;;;;;;10424788;28;20041;-61
2022/05/12 12:37:08;;;;;;;0.30;0.10;;;24.60;51.40;;;;;;10406320;28;20119;-60
2022/05/12 12:42:39;;;;;;;0.70;0.10;;;24.90;51.30;;;;;;10423750;28;20060;-61
2022/05/12 12:48:08;;;;;;;1.58;0.10;;;24.50;47.90;;;;;;10413997;28;20131;-61
2022/05/12 12:53:12;;;;;;;1.15;0.10;;;24.70;47.50;;;;;;10413558;28;20446;-61
2022/05/12 12:58:26;;;;;;;1.55;0.10;;;24.80;47.70;;;;;;10420585;28;20049;-61
2022/05/12 13:03:33;;;;;;;1.02;0.10;;;24.90;48.10;;;;;;10461189;28;20056;-60
2022/05/12 13:08:35;;;;;;;0.65;0.00;;;24.80;48.00;;;;;;10468411;28;20049;-61
2022/05/12 13:13:48;;;;;;;1.75;0.25;;;25.10;47.50;;;;;;10471573;28;20126;-61
2022/05/12 13:18:53;;;;;;;2.55;0.00;;;24.70;47.70;;;;;;10463921;28;20045;-60
2022/05/12 13:24:27;;;;;;;0.32;0.00;;;25.20;46.90;;;;;;10462081;28;20481;-60
2022/05/12 13:29:32;;;;;;;1.25;0.20;;;25.10;46.00;;;;;;10462096;28;20071;-61
2022/05/12 13:34:35;;;;;;;1.38;0.17;;;25.10;45.80;;;;;;10462648;28;20112;-61
2022/05/12 13:39:53;;;;;;;0.30;0.08;;;25.10;45.30;;;;;;10466346;28;20136;-60
2022/05/12 13:45:00;;;;;;;1.00;0.10;;;25.10;45.90;;;;;;10459352;28;20040;-61
2022/05/12 13:50:11;;;;;;;3.30;0.10;;;24.50;46.20;;;;;;10459500;28;20060;-60
2022/05/12 13:55:24;;;;;;;2.42;0.20;;;24.50;46.10;;;;;;10462766;28;20052;-60
2022/05/12 14:00:35;;;;;;;1.60;0.10;;;25.00;46.50;;;;;;10440152;28;22855;-61
2022/05/12 14:05:37;;;;;;;0.47;0.20;;;25.40;45.00;;;;;;10418056;28;20048;-61
2022/05/12 14:10:38;;;;;;;2.03;0.20;;;26.00;44.20;;;;;;10416374;28;20048;-59
2022/05/12 14:21:06;;;;;;;0.45;0.00;;;26.30;43.90;;;;;;10418741;28;20053;-60
2022/05/12 14:26:07;;;;;;;1.23;0.10;;;27.10;41.30;;;;;;10415181;28;20056;-59
2022/05/12 14:31:09;;;;;;;0.20;0.10;;;26.90;41.60;;;;;;10418373;28;20109;-62
2022/05/12 14:36:11;;;;;;;0.15;0.00;;;26.50;41.40;;;;;;10420571;28;20084;-60
2022/05/12 14:41:14;;;;;;;1.90;0.10;;;26.50;42.40;;;;;;10421336;28;20057;-60
2022/05/12 14:46:17;;;;;;;2.50;0.20;;;26.30;41.60;;;;;;10403278;28;20419;-60
2022/05/12 14:51:21;;;;;;;0.32;0.20;;;27.00;41.20;;;;;;10416720;28;20049;-60
2022/05/12 14:56:23;;;;;;;1.73;0.38;;;27.30;40.70;;;;;;10426369;28;20068;-60
2022/05/12 15:01:25;;;;;;;0.20;0.00;;;27.20;40.50;;;;;;10423208;28;20057;-60
2022/05/12 15:06:31;;;;;;;1.77;0.20;;;26.50;41.60;;;;;;10421313;28;20047;-60
2022/05/12 15:11:32;;;;;;;3.70;0.20;;;26.30;40.80;;;;;;10419648;28;20056;-60
2022/05/12 15:16:34;;;;;;;0.25;0.10;;;26.30;40.70;;;;;;10420156;28;20056;-60
2022/05/12 15:21:36;;;;;;;0.40;0.10;;;25.80;41.80;;;;;;10423768;28;20076;-60
2022/05/12 15:26:40;;;;;;;0.63;0.10;;;26.00;42.40;;;;;;10421238;28;20045;-61
2022/05/12 15:31:43;;;;;;;0.50;0.10;;;26.50;42.10;;;;;;10403612;28;20464;-61
2022/05/12 15:36:45;;;;;;;1.55;0.17;;;26.40;41.20;;;;;;10419125;28;20060;-60
2022/05/12 15:41:50;;;;;;;0.17;0.00;;;26.50;40.60;;;;;;10423388;28;20061;-60
2022/05/12 15:47:03;;;;;;;3.20;0.20;;;26.10;41.60;;;;;;10426556;28;20049;-60
2022/05/12 15:52:06;;;;;;;0.75;0.20;;;26.30;42.60;;;;;;10431844;28;20093;-60
2022/05/12 15:57:09;;;;;;;0.10;0.10;;;26.50;39.90;;;;;;10424711;28;20045;-60
2022/05/12 16:02:14;;;;;;;0.20;0.00;;;26.10;40.40;;;;;;10433920;28;20371;-61
2022/05/12 16:07:19;;;;;;;1.17;0.10;;;25.70;41.20;;;;;;10463842;28;20048;-60
2022/05/12 16:12:30;;;;;;;0.88;0.20;;;25.40;41.50;;;;;;10462008;28;20098;-60
2022/05/12 16:17:40;;;;;;;0.57;0.10;;;25.70;42.40;;;;;;10445742;28;20037;-59
2022/05/12 16:22:43;;;;;;;5.20;0.17;;;26.00;41.50;;;;;;10472782;28;20202;-60
2022/05/12 16:27:45;;;;;;;1.55;0.10;;;26.50;41.10;;;;;;10444408;28;20055;-60
2022/05/12 16:32:47;;;;;;;1.02;0.15;;;27.00;41.00;;;;;;10464284;28;20060;-60
2022/05/12 16:37:49;;;;;;;1.85;0.10;;;26.70;40.80;;;;;;10470555;28;20048;-60
2022/05/12 16:42:51;;;;;;;1.48;0.10;;;27.10;40.80;;;;;;10468566;28;20049;-60
2022/05/12 16:47:53;;;;;;;0.60;0.10;;;27.00;39.70;;;;;;10469150;28;20051;-60
2022/05/12 16:52:57;;;;;;;0.43;0.10;;;26.70;39.90;;;;;;10469323;28;20041;-60
2022/05/12 16:57:58;;;;;;;0.28;0.10;;;26.10;39.10;;;;;;10470799;28;20045;-62
2022/05/12 17:03:20;;;;;;;1.60;0.13;;;26.00;39.90;;;;;;10410703;28;20483;-60
2022/05/12 17:08:24;;;;;;;0.95;0.10;;;26.00;41.00;;;;;;10399758;28;20400;-60
2022/05/12 17:13:26;;;;;;;0.65;0.20;;;25.50;40.40;;;;;;10408375;28;20085;-59
2022/05/12 17:18:27;;;;;;;0.47;0.10;;;25.40;41.30;;;;;;10421862;28;20057;-60
2022/05/12 17:23:30;;;;;;;0.20;0.10;;;25.40;41.10;;;;;;10422361;28;20049;-60
2022/05/12 17:28:34;;;;;;;4.28;0.10;;;25.40;41.80;;;;;;10423787;28;20119;-60
2022/05/12 17:33:35;;;;;;;2.13;0.10;;;25.50;41.90;;;;;;10423324;28;20065;-60
2022/05/12 17:38:37;;;;;;;4.82;0.10;;;24.90;41.90;;;;;;10417187;28;20069;-59
2022/05/12 17:43:39;;;;;;;3.13;0.20;;;24.80;42.30;;;;;;10417313;28;20915;-59
2022/05/12 17:48:41;;;;;;;4.75;0.17;;;24.50;44.30;;;;;;10422652;28;20130;-59
2022/05/12 17:53:43;;;;;;;1.95;0.20;;;24.30;44.50;;;;;;10414898;28;20138;-59
2022/05/12 17:58:45;;;;;;;1.50;0.20;;;24.00;44.90;;;;;;10410741;28;20057;-60
2022/05/12 18:03:46;;;;;;;2.55;0.13;;;23.60;45.20;;;;;;10417316;28;20087;-60
2022/05/12 18:08:50;;;;;;;0.20;0.10;;;23.30;46.80;;;;;;10425320;28;20136;-60
2022/05/12 18:13:52;;;;;;;0.85;0.15;;;23.00;47.90;;;;;;10424754;28;20106;-60
2022/05/12 18:18:54;;;;;;;4.55;0.20;;;22.80;48.70;;;;;;10408454;28;20064;-60
2022/05/12 18:24:01;;;;;;;3.15;0.10;;;22.50;49.40;;;;;;10416795;28;20127;-60
2022/05/12 18:29:03;;;;;;;1.85;0.10;;;22.40;50.10;;;;;;10421069;28;20079;-60
2022/05/12 18:34:05;;;;;;;1.13;0.30;;;22.10;50.50;;;;;;10412370;28;20072;-60
2022/05/12 18:39:06;;;;;;;0.75;0.10;;;22.00;50.90;;;;;;10411409;28;20057;-61
2022/05/12 18:44:08;;;;;;;2.53;0.10;;;21.80;51.50;;;;;;10419202;28;20060;-60
2022/05/12 18:49:10;;;;;;;1.20;0.10;;;21.70;52.00;;;;;;10423317;28;20053;-61
2022/05/12 18:54:12;;;;;;;0.13;0.10;;;21.60;52.70;;;;;;10424212;28;20065;-61
2022/05/12 18:59:13;;;;;;;1.67;0.20;;;21.40;52.90;;;;;;10415680;28;20064;-60
2022/05/12 19:04:15;;;;;;;1.17;0.20;;;21.30;53.50;;;;;;10422422;28;20119;-61
2022/05/12 19:09:17;;;;;;;0.77;0.10;;;21.20;53.80;;;;;;10416102;28;20068;-60
2022/05/12 19:14:19;;;;;;;3.40;0.20;;;21.20;54.30;;;;;;10409638;28;20131;-60
2022/05/12 19:19:21;;;;;;;2.72;0.40;;;21.10;54.00;;;;;;10417785;28;20053;-61
2022/05/12 19:24:22;;;;;;;0.80;0.17;;;21.10;54.40;;;;;;10419147;28;20096;-61
2022/05/12 19:29:24;;;;;;;1.75;0.20;;;21.00;54.80;;;;;;10412750;28;20056;-60
2022/05/12 19:34:26;;;;;;;1.98;0.20;;;20.90;55.10;;;;;;10412033;28;20231;-59
2022/05/12 19:39:28;;;;;;;2.78;0.20;;;20.80;55.50;;;;;;10411902;28;20057;-59
2022/05/12 19:44:33;;;;;;;0.90;0.25;;;20.80;55.90;;;;;;10416860;28;20068;-59
2022/05/12 19:49:35;;;;;;;2.63;0.20;;;20.70;56.00;;;;;;10416052;28;20053;-59
2022/05/12 19:54:37;;;;;;;1.65;0.20;;;20.60;56.30;;;;;;10406966;28;20060;-59
2022/05/12 19:59:40;;;;;;;1.40;0.10;;;20.50;56.70;;;;;;10436506;28;20053;-59
2022/05/12 20:04:42;;;;;;;1.33;0.20;;;20.40;56.90;;;;;;10456092;28;20048;-59
2022/05/12 20:09:44;;;;;;;1.55;0.20;;;20.30;57.40;;;;;;10456620;28;20106;-60
2022/05/12 20:14:46;;;;;;;1.20;0.20;;;20.20;57.90;;;;;;10459410;28;20196;-59
2022/05/12 20:19:48;;;;;;;2.38;0.10;;;20.20;58.20;;;;;;10456532;28;20488;-60
2022/05/12 20:24:49;;;;;;;1.40;0.20;;;20.00;59.80;;;;;;10463105;28;20550;-59
2022/05/12 20:29:54;;;;;;;3.63;0.20;;;19.80;60.10;;;;;;10457135;28;20106;-59
2022/05/12 20:34:55;;;;;;;2.03;0.20;;;19.70;60.60;;;;;;10462699;28;20052;-60
2022/05/12 20:39:57;;;;;;;2.50;0.20;;;19.60;61.10;;;;;;10459264;28;20526;-59
2022/05/12 20:44:59;;;;;;;2.28;0.30;;;19.60;61.40;;;;;;10467132;28;20410;-60
2022/05/12 20:50:01;;;;;;;1.45;0.10;;;19.60;61.80;;;;;;10464858;28;20063;-60
2022/05/12 20:55:03;;;;;;;1.85;0.10;;;19.50;61.90;;;;;;10466878;28;20571;-60
2022/05/12 21:00:06;;;;;;;3.20;0.22;;;19.40;62.40;;;;;;10446369;28;20064;-59
2022/05/12 21:05:09;;;;;;;5.03;0.30;;;19.40;62.90;;;;;;10420774;28;20187;-60
2022/05/12 21:10:13;;;;;;;1.40;0.20;;;19.30;63.80;;;;;;10420349;28;20106;-60
2022/05/12 21:15:15;;;;;;;0.88;0.20;;;19.20;64.60;;;;;;10420718;28;20581;-59
2022/05/12 21:20:17;;;;;;;1.75;0.20;;;19.20;64.80;;;;;;10420720;28;20102;-59
2022/05/12 21:25:19;;;;;;;0.52;0.47;;;19.10;64.80;;;;;;10422376;28;20045;-59
2022/05/12 21:30:22;;;;;;;1.60;0.30;;;19.10;64.70;;;;;;10421390;28;20537;-59
2022/05/12 21:35:25;;;;;;;4.28;0.40;;;19.00;64.60;;;;;;10419318;28;20079;-60
2022/05/12 21:40:29;;;;;;;0.85;0.30;;;19.00;64.70;;;;;;10407428;28;20526;-60
2022/05/12 21:45:41;;;;;;;0.77;0.40;;;18.90;64.90;;;;;;10415843;28;20049;-60
2022/05/12 21:50:45;;;;;;;1.10;0.47;;;18.80;64.20;;;;;;10400107;28;20068;-60
2022/05/12 21:55:53;;;;;;;1.90;0.45;;;18.80;64.40;;;;;;10417260;28;20056;-60
2022/05/12 22:06:22;;;;;;;2.10;0.40;;;18.70;65.70;;;;;;10418480;28;20361;-59
2022/05/12 22:12:17;;;;;;;1.27;0.50;;;18.60;66.00;;;;;;10418041;28;20380;-59
2022/05/12 22:16:49;;;;;;;3.85;0.50;;;18.60;67.00;;;;;;10420855;28;20098;-60
2022/05/12 22:21:50;;;;;;;1.60;0.43;;;18.60;68.20;;;;;;10417312;28;20060;-59
2022/05/12 22:26:53;;;;;;;2.50;0.47;;;18.40;68.10;;;;;;10401876;28;20478;-60
2022/05/12 22:31:54;;;;;;;2.42;0.80;;;18.30;68.60;;;;;;10418010;28;20079;-59
2022/05/12 22:36:56;;;;;;;4.28;0.50;;;18.20;68.60;;;;;;10422184;28;20052;-60
2022/05/12 22:41:58;;;;;;;0.90;0.63;;;18.10;69.20;;;;;;10419083;28;20057;-60
2022/05/12 22:46:59;;;;;;;2.65;0.50;;;18.10;69.80;;;;;;10417506;28;20056;-60
2022/05/12 22:52:01;;;;;;;1.25;0.55;;;18.00;70.40;;;;;;10419064;28;20053;-60
2022/05/12 22:57:03;;;;;;;1.85;0.50;;;17.90;70.80;;;;;;10414268;28;20501;-60
2022/05/12 23:02:05;;;;;;;3.42;0.50;;;17.70;71.30;;;;;;10415756;28;20664;-60
2022/05/12 23:07:07;;;;;;;3.22;0.40;;;17.50;71.70;;;;;;10421711;28;20053;-60
2022/05/12 23:12:09;;;;;;;0.75;0.47;;;17.40;71.70;;;;;;10419424;28;20061;-60
2022/05/12 23:17:11;;;;;;;2.00;0.50;;;17.40;71.70;;;;;;10405701;28;20103;-59
2022/05/12 23:22:12;;;;;;;2.83;0.60;;;17.30;72.10;;;;;;10421329;28;20092;-59
2022/05/12 23:27:16;;;;;;;5.30;0.60;;;17.20;72.40;;;;;;10419128;28;20057;-59
2022/05/12 23:32:17;;;;;;;1.52;0.60;;;17.10;72.50;;;;;;10421746;28;20095;-59
2022/05/12 23:37:19;;;;;;;1.80;0.70;;;17.00;73.00;;;;;;10417540;28;20076;-59
2022/05/12 23:42:21;;;;;;;1.95;0.52;;;17.00;73.60;;;;;;10418126;28;20057;-59
2022/05/12 23:47:23;;;;;;;2.33;0.50;;;16.90;73.70;;;;;;10417844;28;20053;-60
2022/05/12 23:52:25;;;;;;;2.05;0.60;;;16.90;75.20;;;;;;10419753;28;20049;-59
2022/05/12 23:57:27;;;;;;;4.50;0.68;;;16.80;75.20;;;;;;10419820;28;20053;-59
